Latest Weather Observations for Warburton

IDW60801

Issued at 8:32 pm WST Friday 28 August 2015 (issued every 30 minutes, with the page automatically refreshed every 10 minutes)

About weather observations | Map of weather stations | Latest weather observations for WA | Other Formats
Station Details ID: 013011 Name: WARBURTON AIRFIELD Lat: -26.13 Lon: 126.58 Height: 459.0 m
Data from the previous 72 hours. | See also: Recent months at Warburton
Date/Time
WST
Temp
°C
App
Temp
°C
Dew
Point
Rel
Hum
%
Delta-T
°C
Wind Press
QNH
hPa
Press
MSL
hPa
Rain
since 9 am
mm
Dir
 
Spd
km/h
Gust
km/h
Spd
kts
Gust
kts
28/08:30pm 18.7 14.7 0.3 29 8.3 ESE 11 13 6 7 1020.0 - 0.0
28/08:00pm 17.9 14.5 -0.4 29 8.1 ESE 7 9 4 5 1020.0 - 0.0
28/07:30pm 19.3 15.6 -0.1 27 8.7 ESE 9 9 5 5 1019.7 - 0.0
28/07:00pm 20.3 16.6 -0.3 25 9.3 SE 9 11 5 6 1019.3 - 0.0
28/06:30pm 21.4 17.2 -0.6 23 10.0 S 11 11 6 6 1018.8 - 0.0
28/06:00pm 22.5 18.8 -0.3 22 10.5 S 9 11 5 6 1018.4 1017.6 0.0
28/05:30pm 24.0 20.6 -0.3 20 11.3 SSE 7 7 4 4 1018.0 - 0.0
28/05:00pm 25.3 21.5 -0.7 18 12.1 S 9 15 5 8 1017.8 - 0.0
28/04:30pm 25.9 22.7 -0.2 18 12.3 SW 6 11 3 6 1017.7 - 0.0
28/04:00pm 26.2 23.0 -0.8 17 12.6 N 6 15 3 8 1017.5 - 0.0
28/03:30pm 27.0 23.7 -0.1 17 12.9 NNW 7 13 4 7 1017.4 - 0.0
28/03:00pm 26.7 23.4 0.4 18 12.6 WNW 7 11 4 6 1017.5 1016.7 0.0
28/02:30pm 25.6 22.0 0.3 19 12.0 N 9 17 5 9 1017.8 - 0.0
28/02:00pm 27.0 24.5 1.4 19 12.5 W 4 13 2 7 1018.0 - 0.0
28/01:30pm 26.3 23.5 2.3 21 11.9 SE 6 11 3 6 1018.3 - 0.0
28/01:00pm 25.6 22.6 1.7 21 11.7 SSW 7 15 4 8 1018.6 - 0.0
28/12:30pm 25.3 21.3 2.7 23 11.2 E 13 20 7 11 1019.2 - 0.0
28/12:00pm 24.8 21.2 2.9 24 10.8 NW 11 17 6 9 1019.7 1018.9 0.0
28/11:30am 24.3 21.4 4.6 28 10.0 NNE 9 17 5 9 1020.3 - 0.0
28/11:00am 23.7 20.0 4.6 29 9.7 N 13 22 7 12 1020.9 - 0.0
28/10:30am 23.0 18.6 5.0 31 9.2 NNE 17 24 9 13 1021.3 - 0.0
28/10:00am 22.4 17.4 4.5 31 9.0 NE 20 30 11 16 1021.8 - 0.0
28/09:30am 21.0 15.5 4.1 33 8.4 NE 22 32 12 17 1022.0 - 0.0
28/09:00am 20.1 14.2 3.8 34 7.9 NE 24 35 13 19 1022.2 1021.4 0.0
28/08:30am 18.8 12.7 3.0 35 7.5 NE 24 33 13 18 1022.1 - 0.0
28/08:00am 17.0 10.0 2.2 37 6.8 ENE 28 37 15 20 1022.1 - 0.0
28/07:30am 16.3 11.0 2.0 38 6.5 E 19 28 10 15 1022.0 - 0.0
28/07:00am 15.0 10.0 1.2 39 6.1 ESE 17 24 9 13 1021.7 - 0.0
28/06:30am 13.5 8.3 -0.2 39 5.8 ESE 17 24 9 13 1021.5 - 0.0
28/06:00am 12.6 6.7 -1.0 39 5.6 E 20 28 11 15 1020.9 1020.1 0.0
28/05:30am 12.1 7.4 -2.1 37 5.7 E 13 19 7 10 1020.9 - 0.0
28/05:00am 12.2 7.4 -2.8 35 5.9 ESE 13 19 7 10 1020.8 - 0.0
28/04:30am 12.4 7.2 -3.0 34 6.1 ESE 15 20 8 11 1020.5 - 0.0
28/04:00am 12.4 6.8 -3.0 34 6.1 ESE 17 20 9 11 1020.2 - 0.0
28/03:30am 12.5 7.3 -2.9 34 6.1 ESE 15 20 8 11 1020.1 - 0.0
28/03:00am 12.6 7.4 -2.8 34 6.1 SE 15 20 8 11 1020.1 1019.3 0.0
28/02:30am 12.8 7.2 -2.6 34 6.2 ESE 17 22 9 12 1020.1 - 0.0
28/02:00am 13.1 7.6 -2.4 34 6.3 ESE 17 22 9 12 1020.2 - 0.0
28/01:30am 13.6 7.7 -1.9 34 6.4 ESE 19 24 10 13 1020.4 - 0.0
28/01:00am 14.1 8.2 -1.9 33 6.6 ESE 19 24 10 13 1020.5 - 0.0
28/12:30am 14.3 8.9 -1.3 34 6.5 ESE 17 22 9 12 1020.6 - 0.0
28/12:00am 14.8 8.9 -0.9 34 6.6 ESE 20 26 11 14 1020.7 1019.9 0.0
 
Date/Time
WST
Temp
°C
App
Temp
°C
Dew
Point
Rel
Hum
%
Delta-T
°C
Wind Press
QNH
hPa
Press
MSL
hPa
Rain
since 9 am
mm
Dir
 
Spd
km/h
Gust
km/h
Spd
kts
Gust
kts
27/11:30pm 15.3 9.5 -0.4 34 6.8 ESE 20 28 11 15 1020.8 - 0.0
27/11:00pm 15.9 10.1 -0.3 33 7.0 ESE 20 30 11 16 1020.9 - 0.0
27/10:30pm 16.6 10.4 -0.1 32 7.3 ESE 22 28 12 15 1021.0 - 0.0
27/10:00pm 16.9 10.8 0.1 32 7.4 ESE 22 33 12 18 1021.2 - 0.0
27/09:30pm 17.2 11.7 0.8 33 7.4 ESE 19 24 10 13 1021.3 - 0.0
27/09:00pm 17.6 12.1 0.7 32 7.6 ESE 19 24 10 13 1021.3 1020.6 0.0
27/08:30pm 18.1 13.1 1.2 32 7.7 ESE 17 22 9 12 1021.2 - 0.0
27/08:00pm 18.3 13.7 1.8 33 7.6 ESE 15 20 8 11 1021.0 - 0.0
27/07:30pm 18.9 14.4 1.9 32 7.9 SE 15 20 8 11 1020.7 - 0.0
27/07:00pm 19.6 15.5 2.0 31 8.3 SE 13 19 7 10 1020.4 - 0.0
27/06:30pm 20.4 16.0 2.7 31 8.5 SE 15 19 8 10 1020.1 - 0.0
27/06:00pm 21.2 17.2 3.0 30 8.8 SE 13 19 7 10 1019.9 1019.1 0.0
27/05:30pm 22.0 17.7 3.2 29 9.2 ESE 15 20 8 11 1019.6 - 0.0
27/05:00pm 22.8 18.0 2.8 27 9.8 ESE 17 26 9 14 1019.3 - 0.0
27/04:30pm 23.7 19.7 3.1 26 10.2 ENE 13 20 7 11 1019.2 - 0.0
27/04:00pm 23.9 20.5 2.1 24 10.6 NNE 9 15 5 8 1019.0 - 0.0
27/03:30pm 24.8 19.7 2.9 24 10.9 E 19 30 10 16 1019.0 - 0.0
27/03:00pm 24.0 19.3 3.3 26 10.3 ESE 17 26 9 14 1019.0 1018.2 0.0
27/02:30pm 24.4 19.4 3.7 26 10.4 SE 19 39 10 21 1019.0 - 0.0
27/02:00pm 23.8 19.3 4.2 28 9.9 E 17 26 9 14 1019.3 - 0.0
27/01:30pm 23.3 17.5 4.3 29 9.6 E 24 35 13 19 1019.5 - 0.0
27/01:00pm 23.7 18.8 4.1 28 9.9 E 19 32 10 17 1019.8 - 0.0
27/12:30pm 22.2 17.7 4.3 31 9.0 E 17 30 9 16 1020.3 - 0.0
27/12:00pm 23.6 18.2 4.5 29 9.6 E 22 33 12 18 1020.9 1020.1 0.0
27/11:30am 22.5 16.7 4.5 31 9.1 E 24 37 13 20 1021.5 - 0.0
27/11:00am 22.1 16.1 5.1 33 8.6 ENE 26 39 14 21 1022.1 - 0.0
27/10:30am 20.8 14.8 5.2 36 7.9 ENE 26 37 14 20 1022.7 - 0.0
27/10:00am 20.4 14.4 5.2 37 7.6 ENE 26 43 14 23 1023.1 - 0.0
27/09:30am 18.6 12.5 4.8 40 6.8 ENE 26 41 14 22 1023.4 - 0.0
27/09:00am 17.7 12.3 4.6 42 6.4 ENE 22 33 12 18 1023.8 1023.0 0.0
27/08:30am 16.1 10.6 4.2 45 5.7 E 22 30 12 16 1024.1 - 0.0
27/08:00am 15.0 10.4 3.8 47 5.3 E 17 22 9 12 1024.0 - 0.0
27/07:30am 13.8 8.6 2.4 46 5.2 ESE 19 24 10 13 1023.6 - 0.0
27/07:00am 12.4 7.9 -0.5 41 5.4 ESE 13 19 7 10 1023.0 - 0.0
27/06:30am 11.3 6.3 -1.1 42 5.1 ESE 15 20 8 11 1022.7 - 0.0
27/06:00am 10.5 6.3 -1.2 44 4.7 ESE 11 17 6 9 1022.4 1021.6 0.0
27/05:30am 10.7 5.7 -1.4 43 4.9 ESE 15 20 8 11 1022.2 - 0.0
27/05:00am 10.6 5.6 -1.4 43 4.8 ESE 15 20 8 11 1021.9 - 0.0
27/04:30am 10.5 5.0 -1.9 42 4.9 ESE 17 22 9 12 1021.7 - 0.0
27/04:00am 10.4 5.7 -1.9 42 4.9 SE 13 19 7 10 1021.6 - 0.0
27/03:30am 10.3 5.6 -2.0 42 4.9 SE 13 20 7 11 1021.3 - 0.0
27/03:00am 10.7 5.6 -2.0 41 5.0 SE 15 20 8 11 1021.2 1020.5 0.0
27/02:30am 11.0 5.5 -2.1 40 5.2 ESE 17 22 9 12 1021.1 - 0.0
27/02:00am 11.4 6.3 -1.7 40 5.3 ESE 15 22 8 12 1021.2 - 0.0
27/01:30am 11.5 6.8 -2.0 39 5.4 ESE 13 19 7 10 1021.5 - 0.0
27/01:00am 11.8 7.1 -1.7 39 5.5 ESE 13 17 7 9 1021.8 - 0.0
27/12:30am 12.4 6.9 -1.9 37 5.8 ESE 17 22 9 12 1021.8 - 0.0
27/12:00am 12.7 7.2 -2.0 36 5.9 ESE 17 22 9 12 1021.7 1020.9 0.0
 
Date/Time
WST
Temp
°C
App
Temp
°C
Dew
Point
Rel
Hum
%
Delta-T
°C
Wind Press
QNH
hPa
Press
MSL
hPa
Rain
since 9 am
mm
Dir
 
Spd
km/h
Gust
km/h
Spd
kts
Gust
kts
26/11:30pm 13.3 8.2 -1.8 35 6.2 ESE 15 22 8 12 1021.7 - 0.0
26/11:00pm 13.7 8.7 -1.5 35 6.3 ESE 15 19 8 10 1021.8 - 0.0
26/10:30pm 14.1 9.1 -1.5 34 6.5 ESE 15 19 8 10 1021.9 - 0.0
26/10:00pm 14.7 9.7 -1.4 33 6.8 SE 15 19 8 10 1021.9 - 0.0
26/09:30pm 15.3 10.7 -1.3 32 7.0 SE 13 17 7 9 1021.9 - 0.0
26/09:00pm 16.1 10.7 -1.0 31 7.3 SE 17 22 9 12 1022.0 1021.2 0.0
26/08:30pm 16.6 11.2 -1.0 30 7.6 SE 17 22 9 12 1021.8 - 0.0
26/08:00pm 16.7 12.1 -0.9 30 7.6 SE 13 17 7 9 1021.8 - 0.0
26/07:30pm 17.0 12.4 -0.7 30 7.7 SE 13 19 7 10 1021.6 - 0.0
26/07:00pm 17.6 13.1 -0.6 29 8.0 SE 13 17 7 9 1021.2 - 0.0
26/06:30pm 18.6 13.7 -0.2 28 8.4 SSE 15 19 8 10 1020.8 - 0.0
26/06:00pm 19.3 14.5 -0.1 27 8.7 SE 15 19 8 10 1020.4 1019.6 0.0
26/05:30pm 20.0 14.5 0.5 27 8.9 SE 19 24 10 13 1019.9 - 0.0
26/05:00pm 20.8 16.7 0.1 25 9.5 ESE 11 17 6 9 1020.0 - 0.0
26/04:30pm 21.3 17.3 0.5 25 9.6 E 11 20 6 11 1019.8 - 0.0
26/04:00pm 22.0 17.2 0.5 24 10.0 SE 15 26 8 14 1019.6 - 0.0
26/03:30pm 22.3 18.0 0.8 24 10.1 ESE 13 30 7 16 1019.5 - 0.0
26/03:00pm 22.1 18.5 0.6 24 10.0 E 9 19 5 10 1019.6 1018.8 0.0
26/02:30pm 22.0 17.7 1.1 25 9.8 SE 13 20 7 11 1019.7 - 0.0
26/02:00pm 21.7 17.1 1.4 26 9.6 ESE 15 24 8 13 1019.9 - 0.0
26/01:30pm 21.4 17.2 1.6 27 9.4 E 13 24 7 13 1020.2 - 0.0
26/01:00pm 21.2 17.1 2.0 28 9.1 ESE 13 24 7 13 1020.4 - 0.0
26/12:30pm 21.0 16.6 2.8 30 8.8 E 15 32 8 17 1020.8 - 0.0
26/12:00pm 20.2 15.5 3.0 32 8.2 ESE 17 30 9 16 1021.3 1020.6 0.0
26/11:30am 19.2 14.5 3.4 35 7.6 SE 17 26 9 14 1022.0 - 0.0
26/11:00am 19.1 13.5 3.7 36 7.5 E 22 30 12 16 1022.5 - 0.0
26/10:30am 18.6 13.1 4.0 38 7.1 ESE 22 33 12 18 1023.0 - 0.0
26/10:00am 17.8 12.3 4.0 40 6.7 ESE 22 30 12 16 1023.4 - 0.0
26/09:30am 16.9 11.3 3.6 41 6.3 E 22 30 12 16 1023.6 - 0.0
26/09:00am 16.2 10.5 2.9 41 6.2 E 22 32 12 17 1023.9 1023.1 0.0
26/08:30am 15.0 8.2 2.9 44 5.6 E 28 39 15 21 1023.9 - 0.0
26/08:00am 13.9 7.7 2.2 45 5.3 ESE 24 39 13 21 1024.0 - 0.0
26/07:30am 12.2 5.9 1.5 48 4.7 ESE 24 33 13 18 1023.6 - 0.0
26/07:00am 10.6 5.0 0.9 51 4.1 ESE 20 28 11 15 1023.3 - 0.0
26/06:30am 9.7 5.0 0.9 54 3.7 SE 15 22 8 12 1023.0 - 0.0
26/06:00am 9.1 4.4 1.0 57 3.4 SE 15 22 8 12 1022.8 1022.0 0.0
26/05:30am 9.4 4.7 1.1 56 3.5 SE 15 22 8 12 1022.5 - 0.0
26/05:00am 9.9 4.5 1.3 55 3.7 SE 19 28 10 15 1022.3 - 0.0
26/04:30am 10.3 4.9 1.4 54 3.8 SE 19 28 10 15 1022.0 - 0.0
26/04:00am 10.7 5.3 1.5 53 4.0 ESE 19 26 10 14 1021.8 - 0.0
26/03:30am 10.9 5.3 1.4 52 4.1 ESE 20 28 11 15 1021.8 - 0.0
26/03:00am 11.2 6.3 1.7 52 4.1 SE 17 24 9 13 1021.8 1021.0 0.0
26/02:30am 11.4 6.8 1.6 51 4.3 SE 15 20 8 11 1022.0 - 0.0
26/02:00am 11.7 7.1 1.6 50 4.4 SE 15 20 8 11 1021.9 - 0.0
26/01:30am 11.9 6.6 1.8 50 4.4 SE 19 26 10 14 1022.0 - 0.0
26/01:00am 12.2 6.9 1.8 49 4.6 SE 19 26 10 14 1022.2 - 0.0
26/12:30am 12.4 7.1 1.7 48 4.7 SSE 19 28 10 15 1022.5 - 0.0
26/12:00am 12.8 7.9 1.8 47 4.8 SSE 17 24 9 13 1022.7 1021.9 0.0
 
Date/Time
WST
Temp
°C
App
Temp
°C
Dew
Point
Rel
Hum
%
Delta-T
°C
Wind Press
QNH
hPa
Press
MSL
hPa
Rain
since 9 am
mm
Dir
 
Spd
km/h
Gust
km/h
Spd
kts
Gust
kts
25/11:30pm 13.2 7.8 1.5 45 5.2 SE 19 26 10 14 1022.8 - 0.0
25/11:00pm 13.8 8.2 1.5 43 5.5 SE 20 30 11 16 1022.9 - 0.0
25/10:30pm 14.1 8.5 1.4 42 5.6 SE 20 26 11 14 1023.0 - 0.0
25/10:00pm 14.5 8.1 1.1 40 5.9 SE 24 35 13 19 1023.0 - 0.0
25/09:30pm 15.1 8.3 0.9 38 6.3 SSE 26 37 14 20 1023.1 - 0.0
25/09:00pm 15.8 10.1 0.8 36 6.6 SSE 20 30 11 16 1023.0 1022.3 0.0

Other Formats:

Comma delimited format used in spreadsheet applications
http://www.bom.gov.au/fwo/IDW60801/IDW60801.94457.axf

JavaScript Object Notation format (JSON) in row-major order
http://www.bom.gov.au/fwo/IDW60801/IDW60801.94457.json